Time;durP1;ratioP1;P1;durP2;ratioP2;P2;SDS_P1;SDS_P2;PMS_P1;PMS_P2;Temp;Humidity;BMP_temperature;BMP_pressure;BME280_temperature;BME280_humidity;BME280_pressure;Samples;Min_cycle;Max_cycle;Signal;HPM_P1;HPM_P2
2023/11/23 00:00:11;;;;;;;118.93;24.38;;;;;;;;;;5104363;28;20238;-51
2023/11/23 00:02:39;;;;;;;156.35;26.80;;;;;;;;;;5106000;28;20047;-46
2023/11/23 00:05:07;;;;;;;140.43;24.40;;;;;;;;;;5104947;28;20243;-50
2023/11/23 00:07:33;;;;;;;140.80;25.83;;;;;;;;;;5105718;28;20026;-49
2023/11/23 00:10:03;;;;;;;117.70;23.95;;;;;;;;;;5105901;28;20027;-49
2023/11/23 00:12:30;;;;;;;126.18;23.98;;;;;;;;;;5105602;28;20031;-47
2023/11/23 00:14:56;;;;;;;98.50;22.00;;;;;;;;;;5105720;28;20016;-52
2023/11/23 00:17:26;;;;;;;105.78;21.58;;;;;;;;;;5105668;28;20022;-51
2023/11/23 00:19:52;;;;;;;95.55;21.30;;;;;;;;;;5105858;28;20020;-52
2023/11/23 00:22:21;;;;;;;99.00;20.70;;;;;;;;;;5105505;28;20028;-49
2023/11/23 00:24:48;;;;;;;54.38;15.98;;;;;;;;;;5105331;28;20061;-49
2023/11/23 00:27:15;;;;;;;70.57;16.73;;;;;;;;;;5105571;28;20052;-46
2023/11/23 00:29:41;;;;;;;54.45;15.27;;;;;;;;;;5105448;28;20070;-48
2023/11/23 00:32:10;;;;;;;56.47;14.80;;;;;;;;;;5105455;28;20028;-46
2023/11/23 00:34:36;;;;;;;41.85;15.02;;;;;;;;;;5105350;28;20125;-55
2023/11/23 00:37:04;;;;;;;58.55;16.50;;;;;;;;;;5105086;28;20020;-52
2023/11/23 00:39:32;;;;;;;78.68;21.13;;;;;;;;;;5104973;28;20060;-50
2023/11/23 00:41:58;;;;;;;74.07;22.13;;;;;;;;;;5104607;28;20035;-47
2023/11/23 00:44:25;;;;;;;70.95;21.73;;;;;;;;;;5104439;28;20085;-46
2023/11/23 00:46:53;;;;;;;90.63;22.88;;;;;;;;;;5105185;28;20032;-49
2023/11/23 00:49:20;;;;;;;122.22;24.23;;;;;;;;;;5095249;28;20300;-50
2023/11/23 00:51:47;;;;;;;211.18;28.17;;;;;;;;;;5104295;28;20024;-51
2023/11/23 00:54:15;;;;;;;244.80;29.55;;;;;;;;;;5103803;28;20016;-48
2023/11/23 00:56:42;;;;;;;223.95;29.73;;;;;;;;;;5104158;28;20059;-47
2023/11/23 00:59:09;;;;;;;178.52;26.35;;;;;;;;;;5103774;28;20019;-46
2023/11/23 01:01:41;;;;;;;168.30;29.63;;;;;;;;;;5104085;28;20212;-51
2023/11/23 01:04:08;;;;;;;148.85;28.10;;;;;;;;;;5103780;28;20028;-48
2023/11/23 01:06:35;;;;;;;120.10;25.42;;;;;;;;;;5103816;28;20038;-51
2023/11/23 01:09:03;;;;;;;140.38;27.73;;;;;;;;;;5103063;28;20048;-53
2023/11/23 01:11:29;;;;;;;262.88;33.97;;;;;;;;;;5102135;28;20028;-50
2023/11/23 01:13:56;;;;;;;227.32;28.15;;;;;;;;;;5100543;28;20020;-47
2023/11/23 01:16:23;;;;;;;143.77;23.83;;;;;;;;;;5102211;28;20035;-50
2023/11/23 01:18:50;;;;;;;127.57;22.20;;;;;;;;;;5102180;28;20028;-45
2023/11/23 01:21:16;;;;;;;96.60;17.02;;;;;;;;;;5102079;28;20043;-51
2023/11/23 01:23:45;;;;;;;83.82;17.98;;;;;;;;;;5096553;28;20028;-49
2023/11/23 01:26:12;;;;;;;79.43;16.13;;;;;;;;;;5089102;28;20255;-51
2023/11/23 01:28:39;;;;;;;56.65;15.20;;;;;;;;;;5083097;28;20066;-49
2023/11/23 01:31:09;;;;;;;28.70;10.95;;;;;;;;;;5083706;28;20016;-48
2023/11/23 01:33:39;;;;;;;30.58;12.15;;;;;;;;;;5083660;28;20304;-46
2023/11/23 01:36:06;;;;;;;25.48;11.10;;;;;;;;;;5083482;28;20025;-48
2023/11/23 01:38:33;;;;;;;23.83;12.25;;;;;;;;;;5083477;28;20016;-48
2023/11/23 01:41:00;;;;;;;21.92;10.45;;;;;;;;;;5083524;28;20043;-49
2023/11/23 01:43:26;;;;;;;24.48;11.15;;;;;;;;;;5082772;28;20021;-53
2023/11/23 01:45:53;;;;;;;23.05;10.63;;;;;;;;;;5083597;28;20037;-48
2023/11/23 01:48:20;;;;;;;23.27;11.30;;;;;;;;;;5083265;28;20220;-47
2023/11/23 01:50:47;;;;;;;19.73;10.77;;;;;;;;;;5083185;28;20271;-51
2023/11/23 01:53:15;;;;;;;21.15;10.95;;;;;;;;;;5083650;28;20040;-47
2023/11/23 01:55:42;;;;;;;30.17;12.13;;;;;;;;;;5083819;28;20047;-47
2023/11/23 01:58:09;;;;;;;50.92;13.75;;;;;;;;;;5082933;28;20044;-51
2023/11/23 02:00:37;;;;;;;58.67;16.05;;;;;;;;;;5083426;28;20016;-49
2023/11/23 02:03:05;;;;;;;65.95;17.58;;;;;;;;;;5083316;28;20040;-48
2023/11/23 02:05:32;;;;;;;53.72;15.93;;;;;;;;;;5083386;28;20021;-51
2023/11/23 02:08:00;;;;;;;38.58;14.82;;;;;;;;;;5092612;28;20028;-46
2023/11/23 02:10:27;;;;;;;32.60;13.65;;;;;;;;;;5095317;28;20028;-56
2023/11/23 02:12:55;;;;;;;35.92;14.02;;;;;;;;;;5103051;28;20020;-45
2023/11/23 02:15:25;;;;;;;36.83;13.50;;;;;;;;;;5103555;28;20024;-52
2023/11/23 02:18:01;;;;;;;103.70;20.30;;;;;;;;;;5107310;28;20031;-49
2023/11/23 02:20:29;;;;;;;80.63;19.50;;;;;;;;;;5106875;28;20031;-55
2023/11/23 02:22:55;;;;;;;63.30;16.83;;;;;;;;;;5106913;28;20028;-54
2023/11/23 02:25:25;;;;;;;38.47;15.50;;;;;;;;;;5107124;28;20017;-57
2023/11/23 02:27:53;;;;;;;69.53;16.58;;;;;;;;;;5102398;28;20085;-50
2023/11/23 02:30:20;;;;;;;113.53;21.90;;;;;;;;;;5086452;28;20099;-52
2023/11/23 02:32:47;;;;;;;115.50;22.63;;;;;;;;;;5097103;28;20038;-52
2023/11/23 02:35:15;;;;;;;71.25;19.20;;;;;;;;;;5091017;28;20028;-54
2023/11/23 02:37:42;;;;;;;62.25;17.30;;;;;;;;;;5091672;28;20031;-50
2023/11/23 02:40:10;;;;;;;51.03;15.52;;;;;;;;;;5086446;28;20028;-49
2023/11/23 02:42:39;;;;;;;47.85;15.55;;;;;;;;;;5099309;28;20050;-53
2023/11/23 02:45:07;;;;;;;51.47;15.57;;;;;;;;;;5098529;28;20043;-44
2023/11/23 02:47:33;;;;;;;50.33;15.77;;;;;;;;;;5091457;28;20398;-54
2023/11/23 02:50:04;;;;;;;50.25;17.20;;;;;;;;;;5086427;28;20091;-51
2023/11/23 02:52:31;;;;;;;51.55;16.40;;;;;;;;;;5097710;28;20028;-58
2023/11/23 02:54:58;;;;;;;47.30;15.95;;;;;;;;;;5104255;28;20338;-47
2023/11/23 02:57:25;;;;;;;29.80;15.25;;;;;;;;;;5091883;28;20039;-45
2023/11/23 02:59:52;;;;;;;31.98;15.13;;;;;;;;;;5085944;28;20036;-51
2023/11/23 03:02:18;;;;;;;27.27;15.68;;;;;;;;;;5087634;28;20181;-49
2023/11/23 03:04:47;;;;;;;25.40;15.38;;;;;;;;;;5101106;28;20062;-45
2023/11/23 03:07:13;;;;;;;21.50;14.25;;;;;;;;;;5098531;28;20085;-48
2023/11/23 03:09:40;;;;;;;27.15;13.57;;;;;;;;;;5097310;28;20065;-45
2023/11/23 03:12:07;;;;;;;26.98;13.10;;;;;;;;;;5096618;28;20020;-51
2023/11/23 03:14:34;;;;;;;28.02;12.30;;;;;;;;;;5087716;28;20272;-46
2023/11/23 03:17:01;;;;;;;20.58;12.52;;;;;;;;;;5101395;28;20323;-50
2023/11/23 03:19:29;;;;;;;22.00;13.07;;;;;;;;;;5093730;28;20039;-51
2023/11/23 03:21:57;;;;;;;24.60;12.02;;;;;;;;;;5104637;28;20203;-45
2023/11/23 03:24:24;;;;;;;24.92;12.57;;;;;;;;;;5093227;28;20080;-48
2023/11/23 03:26:55;;;;;;;23.40;12.35;;;;;;;;;;5083467;28;20016;-47
2023/11/23 03:29:22;;;;;;;22.45;11.13;;;;;;;;;;5083518;28;20404;-45
2023/11/23 03:31:49;;;;;;;23.42;11.85;;;;;;;;;;5084073;28;20021;-49
2023/11/23 03:34:17;;;;;;;22.52;11.85;;;;;;;;;;5090777;28;20087;-57
2023/11/23 03:36:44;;;;;;;16.08;10.82;;;;;;;;;;5085564;28;20072;-43
2023/11/23 03:39:10;;;;;;;17.20;11.13;;;;;;;;;;5085123;28;20032;-48
2023/11/23 03:41:37;;;;;;;18.23;10.90;;;;;;;;;;5085502;28;20024;-46
2023/11/23 03:44:04;;;;;;;15.80;9.98;;;;;;;;;;5090073;28;20056;-51
2023/11/23 03:46:30;;;;;;;16.90;10.57;;;;;;;;;;5092641;28;20091;-43
2023/11/23 03:48:57;;;;;;;13.50;10.48;;;;;;;;;;5103115;28;20031;-48
2023/11/23 03:51:25;;;;;;;16.23;10.35;;;;;;;;;;5105559;28;20072;-47
2023/11/23 03:53:52;;;;;;;20.13;10.95;;;;;;;;;;5105120;28;20027;-43
2023/11/23 03:56:18;;;;;;;15.80;11.27;;;;;;;;;;5105446;28;20016;-50
2023/11/23 03:58:47;;;;;;;19.17;12.05;;;;;;;;;;5105241;28;20381;-50
2023/11/23 04:01:14;;;;;;;21.40;12.48;;;;;;;;;;5105048;28;20031;-48
2023/11/23 04:03:44;;;;;;;17.50;11.45;;;;;;;;;;5105195;28;20027;-43
2023/11/23 04:06:11;;;;;;;16.77;11.82;;;;;;;;;;5105044;28;20077;-48
2023/11/23 04:08:39;;;;;;;17.73;11.10;;;;;;;;;;5104711;28;20273;-45
2023/11/23 04:11:06;;;;;;;15.18;10.40;;;;;;;;;;5105151;28;20065;-44
2023/11/23 04:13:33;;;;;;;15.27;11.05;;;;;;;;;;5104952;28;20028;-48
2023/11/23 04:15:59;;;;;;;13.93;10.70;;;;;;;;;;5104783;28;20308;-48
2023/11/23 04:18:26;;;;;;;14.88;10.30;;;;;;;;;;5105222;28;20024;-47
2023/11/23 04:20:53;;;;;;;15.23;11.10;;;;;;;;;;5100173;28;20028;-46
2023/11/23 04:23:20;;;;;;;19.27;11.20;;;;;;;;;;5095221;28;20313;-45
2023/11/23 04:25:47;;;;;;;17.75;10.63;;;;;;;;;;5084406;28;20247;-44
2023/11/23 04:28:14;;;;;;;14.27;10.23;;;;;;;;;;5084638;28;20028;-48
2023/11/23 04:30:40;;;;;;;15.88;10.57;;;;;;;;;;5084102;28;20012;-47
2023/11/23 04:33:07;;;;;;;12.88;11.02;;;;;;;;;;5084382;28;20024;-47
2023/11/23 04:35:35;;;;;;;16.95;11.75;;;;;;;;;;5084213;28;20020;-49
2023/11/23 04:38:03;;;;;;;18.90;12.00;;;;;;;;;;5084075;28;20035;-49
2023/11/23 04:40:31;;;;;;;12.32;11.02;;;;;;;;;;5083855;28;20013;-50
2023/11/23 04:42:57;;;;;;;14.15;10.45;;;;;;;;;;5084223;28;20043;-48
2023/11/23 04:45:25;;;;;;;11.77;10.05;;;;;;;;;;5083696;28;20044;-47
2023/11/23 04:47:52;;;;;;;13.65;9.95;;;;;;;;;;5084297;28;20070;-47
2023/11/23 04:50:19;;;;;;;13.30;9.45;;;;;;;;;;5084083;28;20048;-49
2023/11/23 04:52:45;;;;;;;10.18;8.70;;;;;;;;;;5084511;28;20017;-48
2023/11/23 04:55:12;;;;;;;11.85;8.95;;;;;;;;;;5084493;28;20028;-47
2023/11/23 04:57:39;;;;;;;13.75;8.32;;;;;;;;;;5084094;28;20029;-46
2023/11/23 05:00:07;;;;;;;10.68;8.63;;;;;;;;;;5083878;28;20025;-43
2023/11/23 05:02:34;;;;;;;10.32;7.85;;;;;;;;;;5084349;28;20028;-46
2023/11/23 05:05:01;;;;;;;10.27;8.13;;;;;;;;;;5084068;28;20086;-47
2023/11/23 05:07:27;;;;;;;8.98;8.07;;;;;;;;;;5084084;28;20216;-44
2023/11/23 05:09:54;;;;;;;10.20;7.97;;;;;;;;;;5083797;28;20036;-45
2023/11/23 05:12:21;;;;;;;12.10;7.90;;;;;;;;;;5084274;28;20048;-50
2023/11/23 05:14:48;;;;;;;9.63;8.25;;;;;;;;;;5083966;28;20028;-50
2023/11/23 05:17:14;;;;;;;11.35;7.95;;;;;;;;;;5084490;28;20042;-45
2023/11/23 05:19:41;;;;;;;8.55;7.68;;;;;;;;;;5083696;28;20032;-48
2023/11/23 05:22:08;;;;;;;10.68;7.93;;;;;;;;;;5084121;28;20024;-48
2023/11/23 05:24:35;;;;;;;10.90;8.15;;;;;;;;;;5083663;28;20368;-53
2023/11/23 05:27:01;;;;;;;10.98;8.18;;;;;;;;;;5084044;28;20032;-43
2023/11/23 05:29:28;;;;;;;10.07;7.32;;;;;;;;;;5083679;28;20028;-47
2023/11/23 05:31:55;;;;;;;11.60;8.05;;;;;;;;;;5083928;28;20020;-43
2023/11/23 05:34:22;;;;;;;9.57;8.43;;;;;;;;;;5083527;28;20317;-46
2023/11/23 05:36:48;;;;;;;10.68;7.80;;;;;;;;;;5083833;28;20025;-48
2023/11/23 05:39:15;;;;;;;10.52;7.35;;;;;;;;;;5083405;28;20027;-45
2023/11/23 05:41:42;;;;;;;10.18;7.50;;;;;;;;;;5083807;28;20112;-43
2023/11/23 05:44:09;;;;;;;9.82;7.57;;;;;;;;;;5083232;28;20336;-43
2023/11/23 05:46:36;;;;;;;10.55;7.65;;;;;;;;;;5083753;28;20032;-50
2023/11/23 05:49:03;;;;;;;9.77;8.10;;;;;;;;;;5083628;28;20029;-52
2023/11/23 05:51:29;;;;;;;9.35;7.47;;;;;;;;;;5087025;28;20297;-46
2023/11/23 05:53:56;;;;;;;10.73;8.02;;;;;;;;;;5087334;28;20052;-49
2023/11/23 05:56:23;;;;;;;8.85;7.88;;;;;;;;;;5087550;28;20016;-44
2023/11/23 05:58:50;;;;;;;8.70;7.68;;;;;;;;;;5087316;28;20020;-45
2023/11/23 06:01:17;;;;;;;8.55;7.20;;;;;;;;;;5087233;28;20026;-46
2023/11/23 06:03:44;;;;;;;8.85;6.95;;;;;;;;;;5086592;28;20039;-43
2023/11/23 06:06:19;;;;;;;9.68;8.00;;;;;;;;;;5087131;28;20028;-41
2023/11/23 06:08:46;;;;;;;10.32;7.57;;;;;;;;;;5086658;28;20347;-42
2023/11/23 06:11:14;;;;;;;11.32;7.15;;;;;;;;;;5087082;28;20228;-42
2023/11/23 06:13:47;;;;;;;8.15;6.90;;;;;;;;;;5087001;28;20021;-47
2023/11/23 06:16:14;;;;;;;8.15;6.85;;;;;;;;;;5087262;28;20029;-47
2023/11/23 06:18:42;;;;;;;9.20;7.25;;;;;;;;;;5086836;28;20047;-44
2023/11/23 06:21:09;;;;;;;10.38;7.18;;;;;;;;;;5086687;28;20032;-44
2023/11/23 06:23:36;;;;;;;11.82;7.60;;;;;;;;;;5086874;28;20212;-42
2023/11/23 06:26:03;;;;;;;10.43;7.00;;;;;;;;;;5087004;28;20032;-44
2023/11/23 06:28:30;;;;;;;7.68;6.93;;;;;;;;;;5086503;28;20064;-47
2023/11/23 06:30:57;;;;;;;9.13;6.75;;;;;;;;;;5086885;28;20021;-47
2023/11/23 06:33:23;;;;;;;8.10;7.00;;;;;;;;;;5086716;28;20051;-47
2023/11/23 06:35:50;;;;;;;7.47;6.50;;;;;;;;;;5086837;28;20016;-50
2023/11/23 06:38:18;;;;;;;8.70;6.93;;;;;;;;;;5086833;28;20252;-47
2023/11/23 06:40:44;;;;;;;8.68;6.65;;;;;;;;;;5086340;28;20070;-44
2023/11/23 06:43:11;;;;;;;7.80;6.95;;;;;;;;;;5086187;28;20382;-47
2023/11/23 06:45:38;;;;;;;8.40;6.68;;;;;;;;;;5085918;28;20155;-47
2023/11/23 06:48:06;;;;;;;10.20;6.70;;;;;;;;;;5086350;28;20027;-45
2023/11/23 06:50:35;;;;;;;10.43;6.82;;;;;;;;;;5086042;28;20024;-44
2023/11/23 06:53:02;;;;;;;7.65;6.78;;;;;;;;;;5086254;28;20024;-44
2023/11/23 06:55:28;;;;;;;8.70;6.97;;;;;;;;;;5085967;28;20028;-46
2023/11/23 06:57:55;;;;;;;7.70;6.43;;;;;;;;;;5085991;28;20095;-46
2023/11/23 07:00:22;;;;;;;8.85;6.75;;;;;;;;;;5086241;28;20016;-52
2023/11/23 07:02:50;;;;;;;12.50;7.22;;;;;;;;;;5085820;28;20043;-49
2023/11/23 07:05:18;;;;;;;8.73;6.55;;;;;;;;;;5085991;28;20043;-49
2023/11/23 07:07:47;;;;;;;9.20;6.43;;;;;;;;;;5086458;28;20029;-43
2023/11/23 07:10:14;;;;;;;8.07;6.38;;;;;;;;;;5085750;28;20063;-43
2023/11/23 07:12:41;;;;;;;8.25;6.10;;;;;;;;;;5086333;28;20048;-49
2023/11/23 07:15:14;;;;;;;9.18;6.38;;;;;;;;;;5085989;28;20316;-44
2023/11/23 07:17:41;;;;;;;7.05;6.25;;;;;;;;;;5086189;28;20020;-45
2023/11/23 07:20:12;;;;;;;11.93;6.88;;;;;;;;;;5086048;28;20190;-44
2023/11/23 07:22:39;;;;;;;8.90;6.25;;;;;;;;;;5086257;28;20033;-44
2023/11/23 07:25:09;;;;;;;7.53;6.45;;;;;;;;;;5085605;28;20031;-44
2023/11/23 07:27:36;;;;;;;8.30;6.20;;;;;;;;;;5085785;28;20029;-47
2023/11/23 07:30:06;;;;;;;10.15;6.57;;;;;;;;;;5085586;28;20093;-48
2023/11/23 07:32:34;;;;;;;8.30;6.40;;;;;;;;;;5085714;28;20020;-56
2023/11/23 07:35:02;;;;;;;8.63;6.70;;;;;;;;;;5085276;28;20096;-41
2023/11/23 07:37:30;;;;;;;9.18;6.10;;;;;;;;;;5085857;28;20016;-43
2023/11/23 07:39:56;;;;;;;9.65;6.60;;;;;;;;;;5085186;28;20091;-52
2023/11/23 07:42:25;;;;;;;10.30;6.13;;;;;;;;;;5085382;28;20074;-46
2023/11/23 07:44:51;;;;;;;7.60;6.57;;;;;;;;;;5084807;28;20056;-50
2023/11/23 07:47:19;;;;;;;8.32;6.45;;;;;;;;;;5085366;28;20024;-46
2023/11/23 07:49:46;;;;;;;13.25;6.85;;;;;;;;;;5085044;28;20036;-45
2023/11/23 07:52:15;;;;;;;8.57;6.65;;;;;;;;;;5085342;28;20024;-42
2023/11/23 07:54:43;;;;;;;8.48;6.68;;;;;;;;;;5084809;28;20021;-45
2023/11/23 07:57:11;;;;;;;8.18;6.35;;;;;;;;;;5091675;28;20023;-46
2023/11/23 07:59:37;;;;;;;8.30;6.13;;;;;;;;;;5090354;28;20028;-41
2023/11/23 08:02:05;;;;;;;8.10;6.18;;;;;;;;;;5105436;28;20243;-52
2023/11/23 08:04:32;;;;;;;9.70;6.28;;;;;;;;;;5105699;28;20032;-49
2023/11/23 08:06:58;;;;;;;7.07;6.07;;;;;;;;;;5105355;28;20028;-49
2023/11/23 08:09:25;;;;;;;9.35;5.93;;;;;;;;;;5105233;28;20027;-48
2023/11/23 08:11:57;;;;;;;9.68;6.43;;;;;;;;;;5104790;28;20023;-50
2023/11/23 08:14:23;;;;;;;9.70;5.88;;;;;;;;;;5103873;28;20024;-49
2023/11/23 08:16:50;;;;;;;7.68;5.65;;;;;;;;;;5105082;28;20012;-44
2023/11/23 08:19:17;;;;;;;6.72;5.65;;;;;;;;;;5104826;28;20208;-48
2023/11/23 08:21:45;;;;;;;9.48;5.57;;;;;;;;;;5105184;28;20030;-47
2023/11/23 08:24:11;;;;;;;8.88;5.65;;;;;;;;;;5104648;28;20028;-49
2023/11/23 08:26:38;;;;;;;7.68;5.25;;;;;;;;;;5104923;28;20107;-44
2023/11/23 08:29:05;;;;;;;9.90;5.90;;;;;;;;;;5104619;28;20320;-48
2023/11/23 08:31:32;;;;;;;7.72;5.60;;;;;;;;;;5105284;28;20020;-50
2023/11/23 08:33:59;;;;;;;8.10;5.25;;;;;;;;;;5104618;28;20028;-49
2023/11/23 08:36:25;;;;;;;6.65;5.65;;;;;;;;;;5104987;28;20093;-44
2023/11/23 08:38:52;;;;;;;6.97;5.25;;;;;;;;;;5104681;28;20204;-47
2023/11/23 08:41:24;;;;;;;7.88;5.88;;;;;;;;;;5104430;28;20039;-49
2023/11/23 08:43:50;;;;;;;8.00;5.65;;;;;;;;;;5104164;28;20071;-50
2023/11/23 08:46:17;;;;;;;10.38;5.50;;;;;;;;;;5104502;28;20083;-48
2023/11/23 08:48:44;;;;;;;6.68;5.60;;;;;;;;;;5104472;28;20044;-45
2023/11/23 08:51:11;;;;;;;7.78;5.60;;;;;;;;;;5104316;28;20024;-45
2023/11/23 08:53:38;;;;;;;7.85;5.30;;;;;;;;;;5104410;28;20038;-47
2023/11/23 08:56:05;;;;;;;8.20;5.28;;;;;;;;;;5103950;28;20027;-50
2023/11/23 08:58:32;;;;;;;9.77;5.90;;;;;;;;;;5104535;28;20031;-50
2023/11/23 09:00:59;;;;;;;6.97;5.50;;;;;;;;;;5104324;28;20087;-49
2023/11/23 09:03:26;;;;;;;8.43;5.75;;;;;;;;;;5104635;28;20032;-48
2023/11/23 09:05:53;;;;;;;9.27;5.82;;;;;;;;;;5104143;28;20055;-50
2023/11/23 09:08:20;;;;;;;9.43;6.07;;;;;;;;;;5104496;28;20020;-53
2023/11/23 09:10:48;;;;;;;10.38;6.00;;;;;;;;;;5104160;28;20081;-49
2023/11/23 09:13:15;;;;;;;6.60;5.93;;;;;;;;;;5104119;28;20024;-52
2023/11/23 09:15:42;;;;;;;9.40;5.25;;;;;;;;;;5104408;28;20213;-50
2023/11/23 09:18:08;;;;;;;8.48;5.65;;;;;;;;;;5104314;28;20032;-51
2023/11/23 09:20:35;;;;;;;9.80;5.25;;;;;;;;;;5104088;28;20377;-52
2023/11/23 09:23:03;;;;;;;9.57;5.65;;;;;;;;;;5103986;28;20039;-50
2023/11/23 09:25:33;;;;;;;12.60;5.57;;;;;;;;;;5105779;28;20024;-46
2023/11/23 09:28:03;;;;;;;9.35;5.70;;;;;;;;;;5107977;28;20213;-52
2023/11/23 09:30:30;;;;;;;8.95;5.65;;;;;;;;;;5108091;28;20035;-46
2023/11/23 09:32:57;;;;;;;8.73;5.40;;;;;;;;;;5108277;28;20046;-52
2023/11/23 09:35:23;;;;;;;7.68;4.82;;;;;;;;;;5108660;28;20308;-46
2023/11/23 09:37:57;;;;;;;8.80;5.22;;;;;;;;;;5108339;28;20032;-51
2023/11/23 09:40:24;;;;;;;5.85;5.13;;;;;;;;;;5107812;28;20020;-44
2023/11/23 09:42:51;;;;;;;9.05;5.00;;;;;;;;;;5108192;28;20043;-50
2023/11/23 09:45:20;;;;;;;9.15;4.90;;;;;;;;;;5107453;28;20236;-49
2023/11/23 09:47:50;;;;;;;7.25;4.53;;;;;;;;;;5108115;28;20152;-50
2023/11/23 09:50:17;;;;;;;9.55;4.70;;;;;;;;;;5107481;28;20036;-49
2023/11/23 09:52:45;;;;;;;8.30;4.53;;;;;;;;;;5108381;28;20016;-52
2023/11/23 09:55:16;;;;;;;8.18;4.85;;;;;;;;;;5107927;28;20020;-49
2023/11/23 09:57:48;;;;;;;6.40;4.32;;;;;;;;;;5108070;28;20050;-55
2023/11/23 10:00:15;;;;;;;11.02;4.70;;;;;;;;;;5107270;28;20144;-49
2023/11/23 10:02:45;;;;;;;7.90;4.40;;;;;;;;;;5107764;28;20332;-51
2023/11/23 10:05:15;;;;;;;8.88;4.38;;;;;;;;;;5107226;28;20064;-47
2023/11/23 10:07:43;;;;;;;5.47;4.22;;;;;;;;;;5107679;28;20035;-48
2023/11/23 10:10:10;;;;;;;8.50;4.60;;;;;;;;;;5107046;28;20044;-46
2023/11/23 10:12:37;;;;;;;8.90;4.30;;;;;;;;;;5108056;28;20016;-49
2023/11/23 10:15:06;;;;;;;8.48;4.55;;;;;;;;;;5107386;28;20028;-54
2023/11/23 10:17:33;;;;;;;8.68;4.18;;;;;;;;;;5107672;28;20024;-45
2023/11/23 10:20:14;;;;;;;7.13;4.20;;;;;;;;;;5107440;28;20084;-49
2023/11/23 10:22:48;;;;;;;6.85;4.43;;;;;;;;;;5107440;28;20032;-46
2023/11/23 10:25:31;;;;;;;15.38;4.22;;;;;;;;;;5107466;28;20028;-47
2023/11/23 10:27:58;;;;;;;7.50;4.32;;;;;;;;;;5106689;28;20038;-43
2023/11/23 10:30:25;;;;;;;7.90;4.50;;;;;;;;;;5106964;28;20043;-41
2023/11/23 10:32:59;;;;;;;6.38;4.55;;;;;;;;;;5106881;28;20028;-47
2023/11/23 10:35:29;;;;;;;9.40;4.45;;;;;;;;;;5107197;28;20097;-46
2023/11/23 10:37:56;;;;;;;14.90;5.63;;;;;;;;;;5101916;28;20032;-46
2023/11/23 10:40:28;;;;;;;25.88;9.82;;;;;;;;;;5103898;28;20288;-45
2023/11/23 10:42:58;;;;;;;25.13;9.90;;;;;;;;;;5090896;28;20059;-43
2023/11/23 10:45:25;;;;;;;25.98;11.20;;;;;;;;;;5104464;28;20071;-50
2023/11/23 10:47:54;;;;;;;36.53;25.67;;;;;;;;;;5107163;28;20024;-48
2023/11/23 10:50:21;;;;;;;38.70;22.45;;;;;;;;;;5102663;28;20088;-45
2023/11/23 10:52:48;;;;;;;34.97;19.13;;;;;;;;;;5097806;28;20043;-45
2023/11/23 10:55:15;;;;;;;25.15;15.98;;;;;;;;;;5106580;28;20020;-47
2023/11/23 10:57:48;;;;;;;20.75;9.75;;;;;;;;;;5099445;28;20020;-47
2023/11/23 11:00:16;;;;;;;17.40;9.32;;;;;;;;;;5089738;28;20039;-45
2023/11/23 11:02:45;;;;;;;10.93;6.70;;;;;;;;;;5090867;28;20031;-45
2023/11/23 11:05:28;;;;;;;12.95;6.68;;;;;;;;;;5094632;28;20096;-49
2023/11/23 11:08:00;;;;;;;12.07;6.20;;;;;;;;;;5103783;28;20216;-52
2023/11/23 11:10:28;;;;;;;12.68;5.85;;;;;;;;;;5103450;28;20285;-48
2023/11/23 11:13:06;;;;;;;10.23;5.90;;;;;;;;;;5093254;28;20028;-54
2023/11/23 11:15:33;;;;;;;11.98;6.10;;;;;;;;;;5094139;28;20079;-44
2023/11/23 11:18:09;;;;;;;11.82;5.60;;;;;;;;;;5097887;28;20056;-46
2023/11/23 11:20:39;;;;;;;9.55;5.25;;;;;;;;;;5100335;28;20039;-44
2023/11/23 11:23:07;;;;;;;13.88;5.70;;;;;;;;;;5097590;28;20141;-51
2023/11/23 11:25:40;;;;;;;10.65;5.55;;;;;;;;;;5098121;28;20029;-46
2023/11/23 11:28:14;;;;;;;10.52;4.68;;;;;;;;;;5083699;28;20048;-44
2023/11/23 11:30:41;;;;;;;7.72;4.45;;;;;;;;;;5089003;28;20317;-46
2023/11/23 11:33:14;;;;;;;9.38;3.88;;;;;;;;;;5103816;28;20038;-49
2023/11/23 11:35:45;;;;;;;11.52;4.00;;;;;;;;;;5103231;28;20019;-43
2023/11/23 11:38:15;;;;;;;18.17;4.22;;;;;;;;;;5095062;28;20050;-44
2023/11/23 11:40:43;;;;;;;11.68;4.45;;;;;;;;;;5100579;28;20078;-43
2023/11/23 11:43:10;;;;;;;8.77;4.18;;;;;;;;;;5099645;28;20089;-46
2023/11/23 11:45:38;;;;;;;9.65;4.63;;;;;;;;;;5087607;28;20067;-46
2023/11/23 11:48:05;;;;;;;23.35;5.30;;;;;;;;;;5091810;28;20064;-59
2023/11/23 11:50:31;;;;;;;30.90;6.40;;;;;;;;;;5085102;28;20012;-51
2023/11/23 11:52:58;;;;;;;15.57;5.28;;;;;;;;;;5084204;28;20041;-50
2023/11/23 11:55:29;;;;;;;13.90;4.35;;;;;;;;;;5083160;28;20052;-51
2023/11/23 11:57:59;;;;;;;15.85;4.32;;;;;;;;;;5082486;28;20068;-47
2023/11/23 12:00:26;;;;;;;18.25;4.35;;;;;;;;;;5082893;28;20304;-53
2023/11/23 12:02:52;;;;;;;11.40;4.13;;;;;;;;;;5082990;28;20040;-46
2023/11/23 12:05:22;;;;;;;8.98;3.60;;;;;;;;;;5082991;28;20020;-48
2023/11/23 12:07:53;;;;;;;12.40;4.32;;;;;;;;;;5083452;28;20074;-51
2023/11/23 12:10:19;;;;;;;8.27;4.20;;;;;;;;;;5083817;28;20324;-51
2023/11/23 12:12:47;;;;;;;8.50;3.70;;;;;;;;;;5084971;28;20039;-46
2023/11/23 12:15:17;;;;;;;10.45;3.83;;;;;;;;;;5085171;28;20035;-47
2023/11/23 12:17:51;;;;;;;8.77;3.80;;;;;;;;;;5085722;28;20070;-46
2023/11/23 12:20:18;;;;;;;9.25;3.90;;;;;;;;;;5084944;28;20299;-48
2023/11/23 12:22:44;;;;;;;10.07;4.13;;;;;;;;;;5085310;28;20224;-51
2023/11/23 12:25:12;;;;;;;8.23;4.00;;;;;;;;;;5084175;28;20081;-54
2023/11/23 12:27:42;;;;;;;8.57;4.03;;;;;;;;;;5084473;28;20361;-49
2023/11/23 12:30:10;;;;;;;6.28;3.80;;;;;;;;;;5084403;28;20339;-48
2023/11/23 12:32:37;;;;;;;8.40;4.28;;;;;;;;;;5084046;28;20265;-47
2023/11/23 12:35:04;;;;;;;9.27;4.20;;;;;;;;;;5084760;28;20032;-50
2023/11/23 12:37:32;;;;;;;9.30;4.05;;;;;;;;;;5084603;28;20304;-51
2023/11/23 12:39:59;;;;;;;12.55;4.15;;;;;;;;;;5084396;28;20324;-50
2023/11/23 12:42:26;;;;;;;15.82;4.80;;;;;;;;;;5084777;28;20047;-49
2023/11/23 12:44:53;;;;;;;5.30;4.20;;;;;;;;;;5084020;28;20255;-45
2023/11/23 12:47:23;;;;;;;11.38;4.97;;;;;;;;;;5084759;28;20036;-49
2023/11/23 12:49:51;;;;;;;11.52;4.90;;;;;;;;;;5084379;28;20025;-51
2023/11/23 12:52:19;;;;;;;6.57;4.15;;;;;;;;;;5084719;28;20084;-52
2023/11/23 12:54:48;;;;;;;11.02;4.43;;;;;;;;;;5083955;28;20033;-49
2023/11/23 12:57:14;;;;;;;8.68;4.35;;;;;;;;;;5084765;28;20028;-52
2023/11/23 12:59:41;;;;;;;6.70;4.13;;;;;;;;;;5083842;28;20183;-46
2023/11/23 13:02:08;;;;;;;6.68;3.83;;;;;;;;;;5084294;28;20035;-50
2023/11/23 13:04:34;;;;;;;9.80;4.18;;;;;;;;;;5084041;28;20052;-53
2023/11/23 13:07:02;;;;;;;4.60;3.67;;;;;;;;;;5084320;28;20028;-49
2023/11/23 13:09:29;;;;;;;8.27;4.07;;;;;;;;;;5083742;28;20033;-48
2023/11/23 13:11:56;;;;;;;7.00;4.00;;;;;;;;;;5084356;28;20103;-46
2023/11/23 13:14:24;;;;;;;5.03;3.85;;;;;;;;;;5084582;28;20084;-52
2023/11/23 13:16:52;;;;;;;5.50;4.10;;;;;;;;;;5084687;28;20072;-51
2023/11/23 13:19:19;;;;;;;11.60;4.45;;;;;;;;;;5084267;28;20028;-47
2023/11/23 13:21:46;;;;;;;9.13;4.53;;;;;;;;;;5084403;28;20098;-47
2023/11/23 13:24:14;;;;;;;8.88;4.57;;;;;;;;;;5083637;28;20040;-48
2023/11/23 13:26:40;;;;;;;8.20;4.25;;;;;;;;;;5084268;28;20207;-51
2023/11/23 13:29:08;;;;;;;9.05;4.63;;;;;;;;;;5083752;28;20028;-50
2023/11/23 13:31:35;;;;;;;8.43;4.63;;;;;;;;;;5083870;28;20093;-48
2023/11/23 13:34:03;;;;;;;7.85;4.50;;;;;;;;;;5084034;28;20261;-57
2023/11/23 13:36:34;;;;;;;7.82;4.60;;;;;;;;;;5084682;28;20055;-52
2023/11/23 13:39:01;;;;;;;8.10;5.30;;;;;;;;;;5083613;28;20036;-50
2023/11/23 13:41:28;;;;;;;8.93;5.10;;;;;;;;;;5083740;28;20024;-52
2023/11/23 13:43:55;;;;;;;9.93;4.68;;;;;;;;;;5083701;28;20335;-50
2023/11/23 13:46:22;;;;;;;6.70;4.25;;;;;;;;;;5083973;28;20209;-52
2023/11/23 13:48:50;;;;;;;8.57;4.88;;;;;;;;;;5083870;28;20028;-52
2023/11/23 13:51:17;;;;;;;8.02;4.97;;;;;;;;;;5083716;28;20024;-53
2023/11/23 13:53:45;;;;;;;6.30;4.65;;;;;;;;;;5083298;28;20029;-53
2023/11/23 13:56:12;;;;;;;11.55;5.07;;;;;;;;;;5083403;28;20040;-54
2023/11/23 13:58:38;;;;;;;11.68;4.88;;;;;;;;;;5083367;28;20052;-47
2023/11/23 14:01:05;;;;;;;9.07;4.50;;;;;;;;;;5083413;28;20039;-53
2023/11/23 14:03:34;;;;;;;7.82;4.00;;;;;;;;;;5083719;28;20243;-48
2023/11/23 14:06:03;;;;;;;5.97;4.00;;;;;;;;;;5083397;28;20269;-50
2023/11/23 14:08:30;;;;;;;7.60;4.40;;;;;;;;;;5083169;28;20220;-53
2023/11/23 14:10:57;;;;;;;9.70;4.43;;;;;;;;;;5084311;28;20069;-52
2023/11/23 14:13:25;;;;;;;7.10;4.13;;;;;;;;;;5087188;28;20080;-52
2023/11/23 14:15:53;;;;;;;5.28;3.47;;;;;;;;;;5087203;28;20024;-49
2023/11/23 14:18:21;;;;;;;8.68;4.72;;;;;;;;;;5087566;28;20091;-48
2023/11/23 14:20:49;;;;;;;7.18;4.43;;;;;;;;;;5087313;28;20032;-47
2023/11/23 14:23:17;;;;;;;7.00;3.97;;;;;;;;;;5087317;28;20130;-46
2023/11/23 14:25:44;;;;;;;7.68;4.10;;;;;;;;;;5086881;28;20021;-49
2023/11/23 14:28:14;;;;;;;8.45;4.18;;;;;;;;;;5087211;28;20024;-47
2023/11/23 14:30:45;;;;;;;7.18;4.40;;;;;;;;;;5087267;28;20032;-52
2023/11/23 14:33:12;;;;;;;8.75;4.90;;;;;;;;;;5087020;28;20316;-49